Coity, United Kingdom
Current Conditions -  °F | °C
As of 1:39 PM on Tuesday 21 Oct 2014 (Local Time) from EGDX Reporting Station
Rain Showers Rain Showers  
Wind Chill: 55°   Ceiling: Unl
Heat Index: 55°   Visibility: 3mi
Dew Point: 41°   Wind: 29mph
Humidity: 58%   Direction: 290°WNW
Pressure: 29.88"   Gusts: 41mph
Location:  51.52°N, 3.56°W
Report Text: EGDX 211239Z 29025G36KT 5000 SHRA SCT020 SCT040 13/05 Q1012 WHT
Loading
Personal Weather Stations






























Interactive Weather Map
Tropical Storm Tracking
New forecast layout! Learn more

10-Day Weather Forecast

Advertisements
Track Severe Weather on mobile